createdAt,value
2018-07-25T00:01:15.482Z,61.52
2018-07-25T00:03:44.625Z,61.01
2018-07-25T00:06:13.805Z,61.83
2018-07-25T00:08:42.945Z,61.46
2018-07-25T00:11:12.081Z,62.29
2018-07-25T00:13:41.572Z,63.47
2018-07-25T00:16:10.713Z,62.81
2018-07-25T00:18:39.849Z,62.83
2018-07-25T00:21:08.981Z,61.80
2018-07-25T00:23:38.113Z,62.17
2018-07-25T00:26:07.661Z,61.89
2018-07-25T00:28:36.824Z,62.41
2018-07-25T00:31:05.951Z,62.03
2018-07-25T00:33:35.170Z,61.95
2018-07-25T00:36:04.300Z,62.29
2018-07-25T00:38:33.432Z,63.02
2018-07-25T00:41:02.573Z,62.72
2018-07-25T00:43:31.704Z,63.03
2018-07-25T00:46:00.846Z,63.94
2018-07-25T00:48:29.987Z,63.87
2018-07-25T00:50:59.117Z,63.05
2018-07-25T00:53:28.259Z,62.58
2018-07-25T00:55:57.409Z,62.93
2018-07-25T00:58:26.644Z,62.88
2018-07-25T01:00:56.037Z,61.97
2018-07-25T01:03:25.170Z,63.26
2018-07-25T01:05:54.361Z,62.97
2018-07-25T01:08:23.828Z,62.49
2018-07-25T01:10:52.967Z,63.94
2018-07-25T01:13:22.089Z,63.47
2018-07-25T01:15:51.242Z,63.22
2018-07-25T01:18:20.361Z,63.50
2018-07-25T01:20:49.488Z,63.30
2018-07-25T01:23:18.628Z,62.87
2018-07-25T01:25:47.766Z,64.09
2018-07-25T01:28:16.908Z,64.23
2018-07-25T01:30:46.061Z,63.72
2018-07-25T01:33:15.213Z,63.34
2018-07-25T01:35:44.338Z,64.20
2018-07-25T01:38:13.461Z,63.91
2018-07-25T01:40:42.778Z,65.04
2018-07-25T01:43:11.759Z,64.98
2018-07-25T01:45:40.917Z,64.73
2018-07-25T01:48:10.281Z,65.01
2018-07-25T01:50:39.590Z,64.75
2018-07-25T01:53:08.720Z,64.23
2018-07-25T01:55:37.856Z,65.48
2018-07-25T01:58:07.497Z,64.45
2018-07-25T02:00:36.641Z,64.11
2018-07-25T02:03:06.093Z,64.74
2018-07-25T02:05:35.245Z,65.55
2018-07-25T02:08:04.393Z,64.96
2018-07-25T02:10:37.978Z,65.46
2018-07-25T02:13:07.363Z,65.23
2018-07-25T02:15:36.496Z,65.71
2018-07-25T02:18:05.870Z,64.79
2018-07-25T02:20:35.073Z,65.61
2018-07-25T02:23:04.221Z,65.44
2018-07-25T02:25:33.415Z,65.64
2018-07-25T02:28:02.549Z,66.05
2018-07-25T02:30:31.516Z,65.71
2018-07-25T02:33:00.645Z,65.74
2018-07-25T02:35:29.563Z,66.50
2018-07-25T02:37:59.049Z,65.41
2018-07-25T02:40:28.195Z,66.14
2018-07-25T02:42:57.313Z,65.35
2018-07-25T02:45:28.485Z,66.00
2018-07-25T02:47:57.692Z,66.29
2018-07-25T02:50:27.002Z,66.38
2018-07-25T02:52:56.069Z,66.33
2018-07-25T02:55:25.206Z,66.11
2018-07-25T02:57:54.347Z,66.10
2018-07-25T03:00:23.485Z,65.97
2018-07-25T03:02:52.765Z,66.11
2018-07-25T03:05:21.897Z,65.80
2018-07-25T03:07:51.029Z,65.47
2018-07-25T03:10:20.286Z,66.11
2018-07-25T03:12:49.421Z,66.24
2018-07-25T03:15:18.653Z,66.82
2018-07-25T03:17:47.781Z,66.36
2018-07-25T03:20:17.058Z,65.99
2018-07-25T03:22:46.190Z,66.33
2018-07-25T03:25:15.318Z,66.73
2018-07-25T03:27:44.454Z,66.94
2018-07-25T03:30:13.658Z,66.38
2018-07-25T03:32:42.769Z,65.83
2018-07-25T03:35:11.916Z,66.78
2018-07-25T03:37:41.069Z,66.78
2018-07-25T03:40:10.230Z,66.76
2018-07-25T03:42:39.401Z,67.42
2018-07-25T03:45:08.535Z,66.57
2018-07-25T03:47:37.681Z,67.48
2018-07-25T03:50:07.085Z,66.99
2018-07-25T03:52:36.236Z,66.49
2018-07-25T03:55:05.393Z,66.49
2018-07-25T03:57:34.517Z,66.92
2018-07-25T04:00:03.728Z,66.30
2018-07-25T04:02:32.944Z,66.55
2018-07-25T04:05:01.788Z,66.44
2018-07-25T04:07:30.941Z,66.97
2018-07-25T04:10:00.065Z,66.87
2018-07-25T04:12:29.208Z,66.02
2018-07-25T04:14:58.340Z,66.69
2018-07-25T04:17:31.769Z,66.92
2018-07-25T04:20:00.988Z,65.58
2018-07-25T04:22:30.125Z,66.29
2018-07-25T04:24:59.252Z,66.07
2018-07-25T04:27:28.393Z,65.88
2018-07-25T04:29:57.530Z,66.13
2018-07-25T04:32:26.672Z,65.80
2018-07-25T04:34:56.157Z,66.01
2018-07-25T04:37:25.289Z,65.64
2018-07-25T04:39:54.417Z,65.90
2018-07-25T04:42:23.546Z,65.95
2018-07-25T04:44:52.694Z,65.95
2018-07-25T04:47:21.937Z,65.96
2018-07-25T04:49:51.062Z,66.77
2018-07-25T04:52:20.215Z,65.85
2018-07-25T04:54:49.339Z,65.48
2018-07-25T04:57:18.468Z,65.45
2018-07-25T04:59:47.933Z,65.39
2018-07-25T05:02:17.065Z,65.49
2018-07-25T05:04:46.365Z,64.36
2018-07-25T05:07:15.559Z,65.12
2018-07-25T05:09:44.777Z,64.26
2018-07-25T05:12:13.904Z,64.93
2018-07-25T05:14:43.049Z,65.33
2018-07-25T05:17:12.204Z,64.92
2018-07-25T05:19:41.424Z,64.58
2018-07-25T05:22:10.572Z,64.61
2018-07-25T05:24:39.738Z,64.57
2018-07-25T05:27:08.874Z,64.11
2018-07-25T05:29:38.006Z,64.43
2018-07-25T05:32:07.312Z,64.78
2018-07-25T05:34:36.583Z,64.29
2018-07-25T05:37:05.725Z,63.71
2018-07-25T05:39:34.896Z,63.16
2018-07-25T05:42:04.020Z,62.34
2018-07-25T05:44:33.162Z,61.87
2018-07-25T05:47:02.306Z,62.68
2018-07-25T05:49:31.560Z,63.62
2018-07-25T05:52:00.753Z,63.08
2018-07-25T05:54:29.890Z,62.25
2018-07-25T05:56:59.056Z,63.04
2018-07-25T05:59:28.198Z,63.24
2018-07-25T06:01:57.358Z,62.30
2018-07-25T06:04:26.603Z,62.52
2018-07-25T06:06:55.633Z,62.18
2018-07-25T06:09:24.761Z,62.43
2018-07-25T06:11:53.692Z,62.69
2018-07-25T06:14:22.897Z,61.71
2018-07-25T06:16:51.750Z,62.28
2018-07-25T06:19:20.893Z,62.57
2018-07-25T06:21:50.031Z,62.19
2018-07-25T06:24:19.156Z,61.67
2018-07-25T06:26:48.299Z,62.37
2018-07-25T06:29:17.432Z,62.16
2018-07-25T06:31:46.571Z,62.24
2018-07-25T06:34:15.728Z,61.33
2018-07-25T06:36:44.838Z,61.14
2018-07-25T06:39:14.402Z,60.61
2018-07-25T06:41:43.540Z,61.09
2018-07-25T06:44:12.674Z,60.92
2018-07-25T06:46:41.810Z,61.03
2018-07-25T06:49:10.945Z,60.71
2018-07-25T06:51:40.121Z,59.89
2018-07-25T06:54:09.241Z,60.54
2018-07-25T06:56:38.374Z,59.62
2018-07-25T06:59:07.497Z,60.25
2018-07-25T07:01:36.668Z,59.97
2018-07-25T07:04:05.818Z,60.68
2018-07-25T07:06:34.953Z,60.22
2018-07-25T07:09:05.202Z,60.31
2018-07-25T07:11:34.343Z,59.53
2018-07-25T07:14:03.500Z,58.00
2018-07-25T07:16:32.644Z,58.47
2018-07-25T07:19:01.784Z,58.91
2018-07-25T07:21:30.703Z,58.08
2018-07-25T07:23:59.897Z,59.08
2018-07-25T07:26:29.000Z,58.78
2018-07-25T07:28:58.129Z,57.44
2018-07-25T07:31:27.293Z,58.63
2018-07-25T07:33:56.453Z,57.96
2018-07-25T07:36:25.601Z,57.53
2018-07-25T07:38:55.056Z,57.35
2018-07-25T07:41:24.204Z,57.60
2018-07-25T07:43:53.343Z,57.00
2018-07-25T07:46:22.488Z,57.14
2018-07-25T07:48:51.626Z,55.38
2018-07-25T07:51:20.761Z,54.38
2018-07-25T07:53:49.901Z,54.50
2018-07-25T07:56:19.023Z,53.69
2018-07-25T07:58:48.195Z,54.90
2018-07-25T08:01:17.336Z,53.14
2018-07-25T08:03:46.501Z,52.56
2018-07-25T08:06:15.821Z,52.41
2018-07-25T08:08:44.942Z,52.90
2018-07-25T08:11:18.508Z,52.25
2018-07-25T08:13:48.736Z,53.15
2018-07-25T08:16:18.229Z,53.08
2018-07-25T08:18:47.499Z,52.68
2018-07-25T08:21:16.678Z,50.89
2018-07-25T08:23:45.777Z,51.66
2018-07-25T08:26:14.921Z,53.04
2018-07-25T08:28:44.057Z,52.19
2018-07-25T08:31:13.191Z,52.78
2018-07-25T08:33:42.334Z,53.39
2018-07-25T08:36:11.469Z,52.90
2018-07-25T08:38:41.931Z,53.20
2018-07-25T08:41:11.087Z,51.18
2018-07-25T08:43:41.420Z,51.81
2018-07-25T08:46:11.680Z,54.02
2018-07-25T08:48:40.984Z,51.94
2018-07-25T08:51:10.219Z,52.05
2018-07-25T08:53:39.379Z,51.56
2018-07-25T08:56:08.484Z,51.18
2018-07-25T08:58:37.421Z,51.46
2018-07-25T09:01:06.582Z,53.27
2018-07-25T09:03:35.713Z,48.96
2018-07-25T09:06:04.870Z,49.17
2018-07-25T09:08:33.997Z,49.19
2018-07-25T09:11:03.113Z,49.19
2018-07-25T09:13:32.398Z,46.28
2018-07-25T09:16:01.529Z,47.50
2018-07-25T09:18:30.653Z,47.89
2018-07-25T09:20:59.789Z,48.79
2018-07-25T09:23:29.144Z,49.14
2018-07-25T09:25:58.296Z,48.08
2018-07-25T09:28:27.428Z,47.81
2018-07-25T09:30:56.832Z,44.62
2018-07-25T09:33:25.965Z,45.90
2018-07-25T09:35:55.110Z,45.08
2018-07-25T09:38:24.249Z,45.91
2018-07-25T09:40:53.443Z,44.46
2018-07-25T09:43:22.524Z,44.34
2018-07-25T09:45:51.851Z,47.14
2018-07-25T09:48:20.969Z,45.65
2018-07-25T09:50:50.097Z,44.06
2018-07-25T09:53:19.245Z,45.76
2018-07-25T09:55:48.365Z,46.09
2018-07-25T09:58:19.349Z,44.60
2018-07-25T10:00:49.783Z,47.49
2018-07-25T10:03:19.585Z,47.43
2018-07-25T10:05:48.724Z,42.16
2018-07-25T10:08:18.390Z,43.94
2018-07-25T10:10:47.521Z,41.91
2018-07-25T10:13:16.787Z,42.37
2018-07-25T10:15:45.696Z,41.22
2018-07-25T10:18:14.843Z,40.09
2018-07-25T10:20:43.988Z,41.81
2018-07-25T10:23:13.160Z,43.45
2018-07-25T10:25:42.297Z,41.37
2018-07-25T10:28:11.441Z,41.43
2018-07-25T10:30:40.765Z,45.05
2018-07-25T10:33:09.889Z,47.01
2018-07-25T10:35:39.016Z,45.26
2018-07-25T10:38:08.166Z,41.59
2018-07-25T10:40:37.293Z,41.66
2018-07-25T10:43:06.422Z,43.33
2018-07-25T10:45:35.589Z,42.60
2018-07-25T10:48:04.732Z,45.43
2018-07-25T10:50:33.853Z,41.55
2018-07-25T10:53:02.992Z,41.68
2018-07-25T10:55:32.133Z,40.96
2018-07-25T10:58:01.259Z,41.32
2018-07-25T11:00:30.449Z,42.59
2018-07-25T11:02:59.741Z,42.24
2018-07-25T11:05:28.866Z,45.83
2018-07-25T11:07:58.012Z,44.26
2018-07-25T11:10:27.145Z,44.17
2018-07-25T11:12:56.612Z,38.96
2018-07-25T11:15:25.732Z,43.06
2018-07-25T11:17:54.874Z,41.49
2018-07-25T11:20:24.014Z,41.47
2018-07-25T11:22:53.186Z,43.02
2018-07-25T11:25:22.414Z,42.81
2018-07-25T11:27:51.781Z,43.38
2018-07-25T11:30:20.921Z,44.73
2018-07-25T11:32:50.128Z,45.22
2018-07-25T11:35:19.492Z,45.08
2018-07-25T11:37:48.621Z,46.25
2018-07-25T11:40:17.750Z,47.42
2018-07-25T11:42:46.894Z,46.83
2018-07-25T11:45:16.072Z,42.94
2018-07-25T11:47:45.540Z,41.49
2018-07-25T11:50:14.682Z,42.13
2018-07-25T11:52:43.811Z,44.12
2018-07-25T11:55:12.976Z,44.17
2018-07-25T11:57:42.121Z,41.24
2018-07-25T12:00:11.240Z,43.84
2018-07-25T12:02:40.377Z,43.60
2018-07-25T12:05:09.525Z,43.19
2018-07-25T12:07:38.648Z,39.42
2018-07-25T12:10:07.799Z,38.13
2018-07-25T12:12:36.940Z,41.32
2018-07-25T12:15:08.410Z,43.52
2018-07-25T12:17:38.072Z,40.55
2018-07-25T12:20:07.613Z,40.80
2018-07-25T12:22:36.836Z,41.41
2018-07-25T12:25:07.222Z,44.71
2018-07-25T12:27:36.745Z,43.96
2018-07-25T12:30:07.062Z,37.11
2018-07-25T12:32:36.204Z,37.20
2018-07-25T12:35:05.673Z,40.83
2018-07-25T12:37:34.810Z,39.36
2018-07-25T12:40:04.101Z,37.75
2018-07-25T12:42:33.273Z,38.36
2018-07-25T12:45:02.418Z,37.91
2018-07-25T12:47:31.540Z,38.75
2018-07-25T12:50:00.461Z,38.56
2018-07-25T12:52:29.594Z,40.39
2018-07-25T12:54:58.798Z,40.80
2018-07-25T12:57:27.932Z,40.27
2018-07-25T12:59:57.049Z,39.29
2018-07-25T13:02:26.213Z,40.11
2018-07-25T13:04:55.353Z,39.09
2018-07-25T13:07:24.475Z,37.60
2018-07-25T13:09:53.661Z,36.97
2018-07-25T13:12:22.814Z,36.74
2018-07-25T13:14:51.711Z,37.16
2018-07-25T13:17:20.845Z,38.09
2018-07-25T13:19:50.029Z,38.34
2018-07-25T13:22:19.172Z,39.44
2018-07-25T13:24:48.313Z,35.20
2018-07-25T13:27:17.440Z,34.88
2018-07-25T13:29:46.609Z,34.96
2018-07-25T13:32:15.729Z,38.45
2018-07-25T13:34:44.866Z,37.69
2018-07-25T13:37:13.998Z,38.49
2018-07-25T13:39:43.684Z,41.05
2018-07-25T13:42:12.909Z,37.28
2018-07-25T13:44:42.042Z,40.76
2018-07-25T13:47:11.190Z,37.95
2018-07-25T13:49:40.319Z,37.89
2018-07-25T13:52:09.501Z,36.68
2018-07-25T13:54:38.778Z,37.04
2018-07-25T13:57:07.909Z,38.66
2018-07-25T13:59:37.023Z,41.63
2018-07-25T14:02:06.364Z,39.97
2018-07-25T14:04:35.552Z,37.81
2018-07-25T14:07:04.689Z,38.49
2018-07-25T14:09:33.824Z,40.61
2018-07-25T14:12:02.966Z,38.03
2018-07-25T14:14:32.085Z,37.03
2018-07-25T14:17:01.225Z,37.70
2018-07-25T14:19:30.412Z,40.04
2018-07-25T14:21:59.557Z,36.06
2018-07-25T14:24:28.702Z,38.62
2018-07-25T14:26:57.841Z,36.90
2018-07-25T14:29:27.047Z,34.49
2018-07-25T14:31:56.145Z,33.54
2018-07-25T14:34:25.279Z,34.22
2018-07-25T14:36:54.403Z,33.69
2018-07-25T14:39:23.538Z,35.87
2018-07-25T14:41:53.016Z,36.50
2018-07-25T14:44:22.181Z,34.92
2018-07-25T14:46:51.348Z,35.12
2018-07-25T14:49:20.438Z,34.42
2018-07-25T14:51:49.566Z,36.54
2018-07-25T14:54:18.727Z,36.54
2018-07-25T14:56:47.865Z,37.84
2018-07-25T14:59:17.273Z,36.64
2018-07-25T15:01:46.401Z,37.43
2018-07-25T15:04:15.544Z,37.08
2018-07-25T15:06:44.668Z,36.18
2018-07-25T15:09:13.796Z,38.32
2018-07-25T15:11:42.933Z,38.19
2018-07-25T15:14:12.064Z,37.10
2018-07-25T15:16:41.213Z,38.06
2018-07-25T15:19:10.338Z,37.39
2018-07-25T15:21:39.464Z,38.23
2018-07-25T15:24:08.590Z,37.50
2018-07-25T15:26:37.721Z,37.77
2018-07-25T15:29:06.869Z,37.09
2018-07-25T15:31:35.760Z,35.60
2018-07-25T15:34:04.905Z,36.31
2018-07-25T15:36:41.279Z,36.46
2018-07-25T15:39:15.593Z,36.66
2018-07-25T15:41:46.053Z,37.92
2018-07-25T15:44:15.843Z,37.69
2018-07-25T15:46:45.152Z,38.12
2018-07-25T15:49:14.312Z,38.16
2018-07-25T15:51:43.448Z,36.98
2018-07-25T15:54:12.583Z,36.26
2018-07-25T15:56:41.817Z,39.25
2018-07-25T15:59:10.932Z,37.47
2018-07-25T16:01:40.097Z,41.28
2018-07-25T16:04:09.484Z,42.84
2018-07-25T16:06:38.602Z,43.31
2018-07-25T16:09:09.566Z,44.09
2018-07-25T16:11:39.273Z,43.10
2018-07-25T16:14:08.576Z,44.42
2018-07-25T16:16:37.746Z,46.10
2018-07-25T16:19:07.213Z,45.90
2018-07-25T16:21:36.393Z,47.51
2018-07-25T16:24:05.577Z,48.89
2018-07-25T16:26:34.708Z,51.50
2018-07-25T16:29:04.601Z,51.11
2018-07-25T16:31:33.737Z,52.55
2018-07-25T16:34:02.888Z,51.60
2018-07-25T16:36:32.121Z,53.55
2018-07-25T16:39:01.625Z,56.70
2018-07-25T16:41:30.737Z,56.02
2018-07-25T16:43:59.857Z,58.69
2018-07-25T16:46:29.294Z,60.11
2018-07-25T16:48:58.520Z,60.17
2018-07-25T16:51:27.633Z,57.12
2018-07-25T16:53:56.773Z,62.47
2018-07-25T16:56:25.979Z,65.16
2018-07-25T16:58:55.082Z,65.07
2018-07-25T17:01:24.204Z,67.00
2018-07-25T17:03:53.354Z,64.57
2018-07-25T17:06:22.849Z,63.68
2018-07-25T17:08:58.765Z,66.03
2018-07-25T17:11:27.893Z,67.88
2018-07-25T17:13:57.016Z,68.54
2018-07-25T17:16:26.156Z,69.20
2018-07-25T17:18:55.330Z,70.51
2018-07-25T17:21:24.477Z,70.28
2018-07-25T17:23:53.634Z,71.38
2018-07-25T17:26:22.758Z,71.15
2018-07-25T17:28:52.837Z,71.64
2018-07-25T17:31:22.001Z,71.40
2018-07-25T17:37:01.942Z,72.43
2018-07-25T17:39:31.509Z,72.28
2018-07-25T17:42:01.007Z,69.87
2018-07-25T17:44:30.569Z,71.44
2018-07-25T17:47:00.252Z,72.09
2018-07-25T17:49:29.689Z,71.96
2018-07-25T17:51:59.180Z,72.40
2018-07-25T17:54:28.799Z,73.09
2018-07-25T17:56:58.390Z,73.86
2018-07-25T17:59:28.183Z,74.46
2018-07-25T18:01:57.727Z,74.37
2018-07-25T18:04:27.294Z,74.15
2018-07-25T18:06:57.185Z,73.82
2018-07-25T18:09:26.398Z,73.43
2018-07-25T18:11:55.849Z,74.14
2018-07-25T18:14:25.624Z,73.56
2018-07-25T18:16:55.189Z,74.19
2018-07-25T18:19:24.607Z,74.54
2018-07-25T18:21:54.132Z,73.43
2018-07-25T18:24:23.705Z,73.23
2018-07-25T18:26:53.149Z,74.23
2018-07-25T18:29:22.866Z,74.44
2018-07-25T18:31:52.281Z,74.01
2018-07-25T18:34:21.652Z,73.73
2018-07-25T18:36:51.132Z,73.38
2018-07-25T18:39:20.587Z,72.71
2018-07-25T18:41:50.094Z,74.39
2018-07-25T18:44:19.593Z,75.19
2018-07-25T18:46:49.802Z,75.37
2018-07-25T18:49:19.270Z,75.41
2018-07-25T18:51:48.750Z,74.90
2018-07-25T18:54:18.274Z,75.52
2018-07-25T18:56:49.681Z,75.28
2018-07-25T18:59:21.262Z,75.91
2018-07-25T19:01:51.640Z,72.98
2018-07-25T19:04:24.658Z,71.87
2018-07-25T19:06:54.779Z,70.82
2018-07-25T19:09:24.305Z,71.30
2018-07-25T19:11:53.835Z,70.98
2018-07-25T19:14:28.476Z,72.24
2018-07-25T19:16:58.026Z,71.94
2018-07-25T19:19:27.184Z,71.16
2018-07-25T19:21:57.569Z,73.29
2018-07-25T19:24:27.224Z,71.76
2018-07-25T19:26:57.226Z,71.52
2018-07-25T19:29:26.790Z,69.69
2018-07-25T19:31:56.705Z,69.17
2018-07-25T19:34:26.105Z,69.85
2018-07-25T19:36:55.624Z,71.19
2018-07-25T19:39:27.087Z,70.40
2018-07-25T19:41:56.736Z,69.69
2018-07-25T19:44:26.328Z,68.10
2018-07-25T19:46:55.745Z,64.53
2018-07-25T19:49:25.206Z,69.31
2018-07-25T19:51:54.694Z,69.30
2018-07-25T19:54:24.485Z,71.14
2018-07-25T19:56:53.830Z,71.07
2018-07-25T19:59:23.535Z,70.91
2018-07-25T20:01:53.672Z,69.63
2018-07-25T20:04:24.720Z,70.05
2018-07-25T20:06:54.400Z,70.22
2018-07-25T20:09:23.872Z,71.20
2018-07-25T20:11:53.229Z,70.64
2018-07-25T20:14:27.997Z,71.53
2018-07-25T20:16:58.789Z,69.86
2018-07-25T20:19:30.325Z,67.84
2018-07-25T20:22:01.203Z,69.08
2018-07-25T20:24:31.146Z,69.79
2018-07-25T20:27:00.833Z,69.88
2018-07-25T20:29:30.439Z,70.00
2018-07-25T20:32:01.159Z,68.85
2018-07-25T20:34:30.808Z,66.16
2018-07-25T20:37:00.375Z,67.48
2018-07-25T20:39:29.778Z,69.22
2018-07-25T20:41:59.314Z,68.99
2018-07-25T20:44:28.877Z,68.54
2018-07-25T20:46:58.594Z,70.38
2018-07-25T20:49:28.060Z,69.38
2018-07-25T20:51:57.501Z,68.97
2018-07-25T20:54:26.956Z,69.28
2018-07-25T20:56:56.398Z,69.23
2018-07-25T20:59:25.943Z,70.42
2018-07-25T21:01:55.334Z,70.35
2018-07-25T21:04:24.913Z,70.87
2018-07-25T21:06:54.894Z,70.57
2018-07-25T21:09:24.277Z,69.68
2018-07-25T21:11:53.640Z,69.48
2018-07-25T21:14:23.331Z,70.45
2018-07-25T21:16:52.652Z,71.40
2018-07-25T21:19:22.005Z,72.74
2018-07-25T21:21:51.464Z,70.67
2018-07-25T21:24:20.852Z,69.06
2018-07-25T21:26:50.325Z,68.13
2018-07-25T21:29:19.395Z,68.28
2018-07-25T21:31:48.803Z,67.98
2018-07-25T21:34:18.203Z,69.49
2018-07-25T21:36:47.593Z,68.03
2018-07-25T21:39:17.041Z,68.69
2018-07-25T21:41:46.417Z,68.75
2018-07-25T21:44:15.757Z,67.76
2018-07-25T21:46:45.106Z,68.12
2018-07-25T21:49:14.522Z,68.05
2018-07-25T21:51:43.942Z,68.51
2018-07-25T21:54:13.321Z,68.43
2018-07-25T21:56:42.660Z,68.11
2018-07-25T21:59:12.055Z,67.98
2018-07-25T22:01:41.468Z,67.74
2018-07-25T22:04:10.781Z,68.25
2018-07-25T22:06:40.117Z,68.64
2018-07-25T22:09:12.025Z,68.16
2018-07-25T22:11:41.706Z,68.03
2018-07-25T22:14:11.142Z,68.60
2018-07-25T22:16:40.508Z,69.55
2018-07-25T22:19:09.908Z,69.08
2018-07-25T22:21:39.262Z,69.34
2018-07-25T22:24:08.623Z,69.50
2018-07-25T22:26:38.150Z,69.71
2018-07-25T22:29:07.465Z,69.73
2018-07-25T22:31:36.804Z,69.03
2018-07-25T22:34:06.275Z,69.80
2018-07-25T22:36:35.617Z,69.18
2018-07-25T22:39:07.729Z,70.00
2018-07-25T22:41:37.225Z,69.81
2018-07-25T22:44:06.672Z,70.46
2018-07-25T22:46:36.058Z,70.21
2018-07-25T22:49:05.463Z,70.51
2018-07-25T22:51:34.919Z,70.07
2018-07-25T22:54:04.266Z,69.85
2018-07-25T22:56:33.674Z,69.27
2018-07-25T22:59:03.066Z,70.00
2018-07-25T23:01:32.445Z,69.68
2018-07-25T23:04:01.945Z,69.24
2018-07-25T23:06:31.552Z,69.27
2018-07-25T23:09:01.030Z,69.05
2018-07-25T23:11:30.496Z,68.40
2018-07-25T23:14:00.036Z,69.53
2018-07-25T23:16:29.581Z,69.56
2018-07-25T23:18:58.989Z,69.86
2018-07-25T23:21:28.551Z,70.89
2018-07-25T23:23:58.089Z,69.28
2018-07-25T23:26:27.620Z,69.04
2018-07-25T23:28:57.164Z,68.22
2018-07-25T23:31:26.613Z,68.20
2018-07-25T23:33:56.028Z,68.39
2018-07-25T23:36:25.468Z,68.49
2018-07-25T23:38:54.882Z,67.58
2018-07-25T23:41:24.292Z,67.90
2018-07-25T23:43:53.625Z,67.98
2018-07-25T23:46:22.977Z,68.14
2018-07-25T23:48:52.316Z,68.10
2018-07-25T23:51:21.686Z,68.41
2018-07-25T23:53:51.169Z,67.89
2018-07-25T23:56:20.522Z,68.57
2018-07-25T23:58:49.857Z,68.66
